createdAt,value
2022-11-15T00:00:56.065Z,30.80
2022-11-15T00:03:25.537Z,29.05
2022-11-15T00:05:52.818Z,31.02
2022-11-15T00:08:19.632Z,30.23
2022-11-15T00:10:57.203Z,30.88
2022-11-15T00:13:24.015Z,32.03
2022-11-15T00:15:50.829Z,31.20
2022-11-15T00:18:18.573Z,30.02
2022-11-15T00:20:45.618Z,29.73
2022-11-15T00:23:12.640Z,29.63
2022-11-15T00:25:39.564Z,28.00
2022-11-15T00:28:06.308Z,31.10
2022-11-15T00:30:33.150Z,30.08
2022-11-15T00:33:07.236Z,30.10
2022-11-15T00:35:35.215Z,32.15
2022-11-15T00:38:02.776Z,30.45
2022-11-15T00:40:29.641Z,29.65
2022-11-15T00:42:56.897Z,31.35
2022-11-15T00:45:23.914Z,30.23
2022-11-15T00:47:50.950Z,30.52
2022-11-15T00:50:18.106Z,30.02
2022-11-15T00:52:45.513Z,31.23
2022-11-15T00:55:16.131Z,30.48
2022-11-15T00:57:42.962Z,28.90
2022-11-15T01:00:10.521Z,30.27
2022-11-15T01:02:37.190Z,30.00
2022-11-15T01:05:04.823Z,28.23
2022-11-15T01:07:31.656Z,28.08
2022-11-15T01:09:58.529Z,30.08
2022-11-15T01:12:25.386Z,29.83
2022-11-15T01:14:52.198Z,30.27
2022-11-15T01:17:19.039Z,29.63
2022-11-15T01:19:45.977Z,29.10
2022-11-15T01:22:12.745Z,29.55
2022-11-15T01:24:39.514Z,30.40
2022-11-15T01:27:06.474Z,30.13
2022-11-15T01:29:34.321Z,30.10
2022-11-15T01:32:01.375Z,29.60
2022-11-15T01:34:28.070Z,31.83
2022-11-15T01:36:54.817Z,30.48
2022-11-15T01:39:21.533Z,31.30
2022-11-15T01:41:48.309Z,29.42
2022-11-15T01:44:50.330Z,31.48
2022-11-15T01:47:39.486Z,31.45
2022-11-15T01:50:13.075Z,29.58
2022-11-15T01:52:41.101Z,31.40
2022-11-15T01:55:20.895Z,32.05
2022-11-15T01:57:51.473Z,31.75
2022-11-15T02:00:18.499Z,32.03
2022-11-15T02:02:45.277Z,31.50
2022-11-15T02:05:12.419Z,30.80
2022-11-15T02:07:39.458Z,32.95
2022-11-15T02:10:17.879Z,32.90
2022-11-15T02:12:45.086Z,29.95
2022-11-15T02:15:12.463Z,29.27
2022-11-15T02:18:07.370Z,31.13
2022-11-15T02:20:44.463Z,30.17
2022-11-15T02:23:20.061Z,28.83
2022-11-15T02:25:46.786Z,28.20
2022-11-15T02:28:31.770Z,30.40
2022-11-15T02:31:17.290Z,26.95
2022-11-15T02:34:06.653Z,27.33
2022-11-15T02:36:48.656Z,28.17
2022-11-15T02:39:52.478Z,29.50
2022-11-15T02:42:43.243Z,27.55
2022-11-15T02:45:14.309Z,29.98
2022-11-15T02:47:48.972Z,27.85
2022-11-15T02:50:19.468Z,28.30
2022-11-15T02:52:47.823Z,29.13
2022-11-15T02:55:35.317Z,28.50
2022-11-15T02:58:39.117Z,29.10
2022-11-15T03:01:25.412Z,27.05
2022-11-15T03:04:15.663Z,27.15
2022-11-15T03:06:53.159Z,28.85
2022-11-15T03:09:33.018Z,28.90
2022-11-15T03:12:18.311Z,27.73
2022-11-15T03:14:58.451Z,27.83
2022-11-15T03:17:30.886Z,26.45
2022-11-15T03:20:02.143Z,27.05
2022-11-15T03:22:31.557Z,27.75
2022-11-15T03:25:06.513Z,27.83
2022-11-15T03:27:39.245Z,28.45
2022-11-15T03:30:09.215Z,29.05
2022-11-15T03:32:41.352Z,28.25
2022-11-15T03:35:12.664Z,28.80
2022-11-15T03:38:05.797Z,27.50
2022-11-15T03:40:44.038Z,28.25
2022-11-15T03:45:48.737Z,26.88
2022-11-15T03:48:25.468Z,29.23
2022-11-15T03:50:52.812Z,26.27
2022-11-15T03:53:19.583Z,28.33
2022-11-15T03:55:46.192Z,28.58
2022-11-15T03:58:12.857Z,28.05
2022-11-15T04:00:39.567Z,27.83
2022-11-15T04:03:06.675Z,26.33
2022-11-15T04:05:33.359Z,28.52
2022-11-15T04:08:00.101Z,28.25
2022-11-15T04:10:26.825Z,27.80
2022-11-15T04:12:53.868Z,28.48
2022-11-15T04:15:23.186Z,27.67
2022-11-15T04:17:52.319Z,26.67
2022-11-15T04:20:39.092Z,26.23
2022-11-15T04:23:30.646Z,24.42
2022-11-15T04:26:01.030Z,27.38
2022-11-15T04:28:28.112Z,26.42
2022-11-15T04:30:54.835Z,27.38
2022-11-15T04:33:22.131Z,27.23
2022-11-15T04:36:08.958Z,25.88
2022-11-15T04:38:36.495Z,25.63
2022-11-15T04:41:04.159Z,27.15
2022-11-15T04:43:31.283Z,27.00
2022-11-15T04:45:58.243Z,26.85
2022-11-15T04:48:24.919Z,27.27
2022-11-15T04:50:51.553Z,28.25
2022-11-15T04:53:18.267Z,27.15
2022-11-15T04:55:48.051Z,26.38
2022-11-15T04:58:14.749Z,29.27
2022-11-15T05:00:41.447Z,28.60
2022-11-15T05:03:28.977Z,27.33
2022-11-15T05:05:55.998Z,28.38
2022-11-15T05:08:22.688Z,28.58
2022-11-15T05:10:49.436Z,27.38
2022-11-15T05:13:16.127Z,29.23
2022-11-15T05:15:42.780Z,27.75
2022-11-15T05:18:09.633Z,28.65
2022-11-15T05:20:36.370Z,28.02
2022-11-15T05:23:03.237Z,29.70
2022-11-15T05:25:30.082Z,28.55
2022-11-15T05:27:57.001Z,27.65
2022-11-15T05:30:23.673Z,28.77
2022-11-15T05:32:51.351Z,28.88
2022-11-15T05:35:32.508Z,27.85
2022-11-15T05:37:59.409Z,28.75
2022-11-15T05:40:26.809Z,29.30
2022-11-15T05:42:53.678Z,28.48
2022-11-15T05:45:26.571Z,30.65
2022-11-15T05:47:56.285Z,29.13
2022-11-15T05:50:23.036Z,27.60
2022-11-15T05:52:50.151Z,26.65
2022-11-15T05:55:16.842Z,29.85
2022-11-15T05:57:43.801Z,28.80
2022-11-15T06:00:11.064Z,26.85
2022-11-15T06:02:37.790Z,30.02
2022-11-15T06:05:04.726Z,26.85
2022-11-15T06:07:31.790Z,28.60
2022-11-15T06:09:58.486Z,27.98
2022-11-15T06:12:25.360Z,30.83
2022-11-15T06:14:52.218Z,28.23
2022-11-15T06:17:18.931Z,28.38
2022-11-15T06:19:45.741Z,29.00
2022-11-15T06:22:12.464Z,28.02
2022-11-15T06:24:39.153Z,30.98
2022-11-15T06:27:05.756Z,30.88
2022-11-15T06:29:32.497Z,27.48
2022-11-15T06:31:59.472Z,27.45
2022-11-15T06:34:26.186Z,25.00
2022-11-15T06:36:52.820Z,27.95
2022-11-15T06:39:19.588Z,28.70
2022-11-15T06:41:46.331Z,27.08
2022-11-15T06:44:13.082Z,27.58
2022-11-15T06:46:39.804Z,27.77
2022-11-15T06:49:09.624Z,27.48
2022-11-15T06:51:36.867Z,27.63
2022-11-15T06:54:03.924Z,26.10
2022-11-15T06:56:30.639Z,27.38
2022-11-15T06:58:57.486Z,26.33
2022-11-15T07:01:24.216Z,26.95
2022-11-15T07:03:50.902Z,27.38
2022-11-15T07:06:17.621Z,26.48
2022-11-15T07:08:44.475Z,27.63
2022-11-15T07:11:11.224Z,27.33
2022-11-15T07:13:38.498Z,26.80
2022-11-15T07:16:11.209Z,26.08
2022-11-15T07:18:39.497Z,27.77
2022-11-15T07:21:08.626Z,28.15
2022-11-15T07:23:38.206Z,27.48
2022-11-15T07:26:05.462Z,26.05
2022-11-15T07:28:32.463Z,27.42
2022-11-15T07:30:59.342Z,26.20
2022-11-15T07:33:26.213Z,27.38
2022-11-15T07:35:52.978Z,27.30
2022-11-15T07:38:22.570Z,27.23
2022-11-15T07:40:57.623Z,25.83
2022-11-15T07:43:24.266Z,26.73
2022-11-15T07:45:55.994Z,26.73
2022-11-15T07:48:25.451Z,25.67
2022-11-15T07:50:52.233Z,27.67
2022-11-15T07:53:18.945Z,27.40
2022-11-15T07:55:45.818Z,25.60
2022-11-15T07:58:13.239Z,25.85
2022-11-15T08:00:40.202Z,27.33
2022-11-15T08:03:15.070Z,26.35
2022-11-15T08:05:42.698Z,26.40
2022-11-15T08:08:12.000Z,25.58
2022-11-15T08:10:40.783Z,26.02
2022-11-15T08:13:10.119Z,25.95
2022-11-15T08:15:38.227Z,24.30
2022-11-15T08:18:17.203Z,25.55
2022-11-15T08:20:44.118Z,25.17
2022-11-15T08:23:13.865Z,24.38
2022-11-15T08:25:41.278Z,25.17
2022-11-15T08:28:09.138Z,25.75
2022-11-15T08:30:38.363Z,25.83
2022-11-15T08:33:05.718Z,24.40
2022-11-15T08:35:32.554Z,25.40
2022-11-15T08:37:59.218Z,24.63
2022-11-15T08:40:27.871Z,26.77
2022-11-15T08:42:54.813Z,25.65
2022-11-15T08:45:22.079Z,24.92
2022-11-15T08:47:53.925Z,25.45
2022-11-15T08:50:21.233Z,24.88
2022-11-15T08:52:49.237Z,25.15
2022-11-15T08:55:17.641Z,26.00
2022-11-15T08:57:44.989Z,24.42
2022-11-15T09:00:13.113Z,24.83
2022-11-15T09:02:41.025Z,24.77
2022-11-15T09:05:08.561Z,24.77
2022-11-15T09:07:35.418Z,25.23
2022-11-15T09:10:02.227Z,25.35
2022-11-15T09:12:29.210Z,25.63
2022-11-15T09:14:55.907Z,25.17
2022-11-15T09:17:25.045Z,24.85
2022-11-15T09:19:52.132Z,24.05
2022-11-15T09:22:19.100Z,24.42
2022-11-15T09:24:46.000Z,24.45
2022-11-15T09:27:14.354Z,24.60
2022-11-15T09:29:41.202Z,22.98
2022-11-15T09:32:08.318Z,24.10
2022-11-15T09:34:34.908Z,24.77
2022-11-15T09:37:01.820Z,26.40
2022-11-15T09:39:28.497Z,24.45
2022-11-15T09:42:31.529Z,24.42
2022-11-15T09:45:01.043Z,24.92
2022-11-15T09:47:39.866Z,22.40
2022-11-15T09:50:18.155Z,23.80
2022-11-15T09:52:46.573Z,23.48
2022-11-15T09:55:22.157Z,24.13
2022-11-15T09:58:00.905Z,24.70
2022-11-15T10:00:46.015Z,24.08
2022-11-15T10:03:16.135Z,23.83
2022-11-15T10:05:51.444Z,23.08
2022-11-15T10:08:33.662Z,23.50
2022-11-15T10:14:03.088Z,24.42
2022-11-15T10:16:56.052Z,22.35
2022-11-15T10:19:46.083Z,22.38
2022-11-15T10:22:33.107Z,23.83
2022-11-15T10:25:19.337Z,23.65
2022-11-15T10:27:53.292Z,22.40
2022-11-15T10:30:20.365Z,23.25
2022-11-15T10:32:48.412Z,21.55
2022-11-15T10:35:21.649Z,22.08
2022-11-15T10:37:48.612Z,23.25
2022-11-15T10:40:23.096Z,23.35
2022-11-15T10:43:07.223Z,21.52
2022-11-15T10:45:35.007Z,21.80
2022-11-15T10:48:14.144Z,22.83
2022-11-15T10:50:46.378Z,21.90
2022-11-15T10:53:37.389Z,22.17
2022-11-15T10:56:09.785Z,20.85
2022-11-15T10:58:51.092Z,21.05
2022-11-15T11:01:26.666Z,21.88
2022-11-15T11:04:09.590Z,20.33
2022-11-15T11:07:00.289Z,20.95
2022-11-15T11:09:34.397Z,19.88
2022-11-15T11:12:02.116Z,20.65
2022-11-15T11:14:37.895Z,20.70
2022-11-15T11:17:31.785Z,20.52
2022-11-15T11:20:13.319Z,20.20
2022-11-15T11:23:15.572Z,20.85
2022-11-15T11:25:54.943Z,19.25
2022-11-15T11:28:44.686Z,19.85
2022-11-15T11:31:26.812Z,19.63
2022-11-15T11:34:13.996Z,19.25
2022-11-15T11:36:46.796Z,20.63
2022-11-15T11:39:19.384Z,18.55
2022-11-15T11:42:09.432Z,20.02
2022-11-15T11:45:06.426Z,19.55
2022-11-15T11:47:41.527Z,19.88
2022-11-15T11:50:16.495Z,19.55
2022-11-15T11:53:03.921Z,21.50
2022-11-15T11:55:40.573Z,20.33
2022-11-15T11:58:31.273Z,19.83
2022-11-15T12:01:18.701Z,19.95
2022-11-15T12:03:48.580Z,20.33
2022-11-15T12:06:21.141Z,19.85
2022-11-15T12:09:13.077Z,19.95
2022-11-15T12:11:51.962Z,19.05
2022-11-15T12:14:27.737Z,20.63
2022-11-15T12:16:54.523Z,21.67
2022-11-15T12:19:21.243Z,20.63
2022-11-15T12:21:56.109Z,19.65
2022-11-15T12:24:31.463Z,20.38
2022-11-15T12:27:23.256Z,19.45
2022-11-15T12:29:56.958Z,19.92
2022-11-15T12:32:37.449Z,22.05
2022-11-15T12:35:07.150Z,20.88
2022-11-15T12:37:47.189Z,21.23
2022-11-15T12:40:21.768Z,20.25
2022-11-15T12:43:01.860Z,19.63
2022-11-15T12:45:38.283Z,19.38
2022-11-15T12:48:17.335Z,19.60
2022-11-15T12:50:55.113Z,18.63
2022-11-15T12:53:28.462Z,18.55
2022-11-15T12:56:13.392Z,17.85
2022-11-15T12:58:54.050Z,19.90
2022-11-15T13:01:41.005Z,18.92
2022-11-15T13:04:20.124Z,19.67
2022-11-15T13:06:48.662Z,20.17
2022-11-15T13:09:30.832Z,20.33
2022-11-15T13:12:05.261Z,18.52
2022-11-15T13:14:37.979Z,19.45
2022-11-15T13:17:20.176Z,20.42
2022-11-15T13:19:48.947Z,19.25
2022-11-15T13:22:34.251Z,19.20
2022-11-15T13:25:02.337Z,18.98
2022-11-15T13:27:30.037Z,19.77
2022-11-15T13:29:56.877Z,19.38
2022-11-15T13:32:23.730Z,19.02
2022-11-15T13:34:53.846Z,19.23
2022-11-15T13:37:23.655Z,19.58
2022-11-15T13:39:51.021Z,19.95
2022-11-15T13:42:20.432Z,21.02
2022-11-15T13:44:58.966Z,19.35
2022-11-15T13:47:29.937Z,19.23
2022-11-15T13:50:02.457Z,19.55
2022-11-15T13:52:36.142Z,19.92
2022-11-15T13:55:10.300Z,20.02
2022-11-15T13:57:46.626Z,19.38
2022-11-15T14:00:35.450Z,18.85
2022-11-15T14:03:16.553Z,19.35
2022-11-15T14:05:43.610Z,18.98
2022-11-15T14:08:16.415Z,18.70
2022-11-15T14:10:43.082Z,18.83
2022-11-15T14:13:30.488Z,19.08
2022-11-15T14:16:20.783Z,18.77
2022-11-15T14:18:51.631Z,19.00
2022-11-15T14:21:19.816Z,19.42
2022-11-15T14:23:47.055Z,20.83
2022-11-15T14:26:30.772Z,20.52
2022-11-15T14:28:57.521Z,21.35
2022-11-15T14:31:24.210Z,21.92
2022-11-15T14:33:50.837Z,20.50
2022-11-15T14:36:19.373Z,21.33
2022-11-15T14:38:46.755Z,21.38
2022-11-15T14:41:33.561Z,22.02
2022-11-15T14:44:00.220Z,22.13
2022-11-15T14:46:26.858Z,22.67
2022-11-15T14:48:53.519Z,21.63
2022-11-15T14:51:22.804Z,22.65
2022-11-15T14:53:50.287Z,23.25
2022-11-15T14:56:19.728Z,23.65
2022-11-15T14:58:46.499Z,23.58
2022-11-15T15:01:26.367Z,23.65
2022-11-15T15:03:56.806Z,24.42
2022-11-15T15:06:24.342Z,23.55
2022-11-15T15:08:51.998Z,22.92
2022-11-15T15:11:24.910Z,23.02
2022-11-15T15:13:53.258Z,24.75
2022-11-15T15:16:20.644Z,22.65
2022-11-15T15:18:47.365Z,22.35
2022-11-15T15:21:36.844Z,22.00
2022-11-15T15:24:05.045Z,23.40
2022-11-15T15:26:34.751Z,22.70
2022-11-15T15:29:01.515Z,22.85
2022-11-15T15:31:28.305Z,21.92
2022-11-15T15:33:54.915Z,23.90
2022-11-15T15:36:21.610Z,21.70
2022-11-15T15:38:48.268Z,22.75
2022-11-15T15:41:16.525Z,23.15
2022-11-15T15:43:43.692Z,25.05
2022-11-15T15:46:15.985Z,23.83
2022-11-15T15:48:43.173Z,24.17
2022-11-15T15:51:15.653Z,25.17
2022-11-15T15:53:45.301Z,25.90
2022-11-15T15:56:11.992Z,26.05
2022-11-15T15:58:38.992Z,25.05
2022-11-15T16:01:05.746Z,24.10
2022-11-15T16:03:32.577Z,25.45
2022-11-15T16:05:59.601Z,23.95
2022-11-15T16:08:42.590Z,24.20
2022-11-15T16:11:17.622Z,25.67
2022-11-15T16:13:44.715Z,25.35
2022-11-15T16:16:14.686Z,23.90
2022-11-15T16:18:41.368Z,24.02
2022-11-15T16:21:09.710Z,24.38
2022-11-15T16:23:36.469Z,23.67
2022-11-15T16:26:04.403Z,23.90
2022-11-15T16:28:34.017Z,25.48
2022-11-15T16:31:11.352Z,25.88
2022-11-15T16:33:38.820Z,23.50
2022-11-15T16:36:11.625Z,25.33
2022-11-15T16:38:39.980Z,25.35
2022-11-15T16:41:06.697Z,26.42
2022-11-15T16:43:33.310Z,25.40
2022-11-15T16:46:25.474Z,26.67
2022-11-15T16:48:53.836Z,25.55
2022-11-15T16:51:20.883Z,26.20
2022-11-15T16:53:49.121Z,25.38
2022-11-15T16:56:26.966Z,28.52
2022-11-15T16:59:01.038Z,29.15
2022-11-15T17:01:30.559Z,28.00
2022-11-15T17:03:57.469Z,28.52
2022-11-15T17:06:25.919Z,27.27
2022-11-15T17:08:52.842Z,28.25
2022-11-15T17:11:22.863Z,27.55
2022-11-15T17:13:49.647Z,28.38
2022-11-15T17:16:18.369Z,28.58
2022-11-15T17:18:45.675Z,26.67
2022-11-15T17:21:15.912Z,26.15
2022-11-15T17:23:43.319Z,26.92
2022-11-15T17:26:28.747Z,26.25
2022-11-15T17:29:01.512Z,26.10
2022-11-15T17:31:30.789Z,27.15
2022-11-15T17:33:57.497Z,27.63
2022-11-15T17:36:24.130Z,26.17
2022-11-15T17:38:59.083Z,26.88
2022-11-15T17:41:26.850Z,26.40
2022-11-15T17:43:53.609Z,27.80
2022-11-15T17:46:21.352Z,26.80
2022-11-15T17:48:49.176Z,26.35
2022-11-15T17:51:18.694Z,27.30
2022-11-15T17:53:47.432Z,25.50
2022-11-15T17:56:17.246Z,24.90
2022-11-15T17:58:53.189Z,24.33
2022-11-15T18:01:34.348Z,24.25
2022-11-15T18:04:03.079Z,24.25
2022-11-15T18:06:32.108Z,21.17
2022-11-15T18:08:59.362Z,23.25
2022-11-15T18:11:28.122Z,24.10
2022-11-15T18:13:57.566Z,22.83
2022-11-15T18:16:27.331Z,21.88
2022-11-15T18:18:55.304Z,23.10
2022-11-15T18:21:24.444Z,21.50
2022-11-15T18:23:56.833Z,20.50
2022-11-15T18:26:27.719Z,20.20
2022-11-15T18:28:57.438Z,19.60
2022-11-15T18:31:27.191Z,18.70
2022-11-15T18:33:54.797Z,19.30
2022-11-15T18:36:26.607Z,19.60
2022-11-15T18:39:04.539Z,19.38
2022-11-15T18:41:32.713Z,17.77
2022-11-15T18:44:02.147Z,23.67
2022-11-15T18:46:31.885Z,19.10
2022-11-15T18:49:00.588Z,21.17
2022-11-15T18:51:32.244Z,21.23
2022-11-15T18:54:01.854Z,22.38
2022-11-15T18:56:30.426Z,21.25
2022-11-15T18:58:59.160Z,21.23
2022-11-15T19:01:36.841Z,22.20
2022-11-15T19:04:17.424Z,23.85
2022-11-15T19:06:49.392Z,21.60
2022-11-15T19:11:47.360Z,19.75
2022-11-15T19:14:16.636Z,19.77
2022-11-15T19:16:45.513Z,18.38
2022-11-15T19:19:15.198Z,23.67
2022-11-15T19:21:42.535Z,21.23
2022-11-15T19:24:10.449Z,21.50
2022-11-15T19:26:37.852Z,21.55
2022-11-15T19:29:06.284Z,21.50
2022-11-15T19:31:33.723Z,20.92
2022-11-15T19:34:06.748Z,22.10
2022-11-15T19:36:44.170Z,20.90
2022-11-15T19:39:13.440Z,23.98
2022-11-15T19:41:44.228Z,22.23
2022-11-15T19:44:12.544Z,23.15
2022-11-15T19:46:39.694Z,22.80
2022-11-15T19:49:11.029Z,22.67
2022-11-15T19:51:38.904Z,23.45
2022-11-15T19:54:09.060Z,24.50
2022-11-15T19:56:36.811Z,25.90
2022-11-15T19:59:04.978Z,22.42
2022-11-15T20:01:36.094Z,24.83
2022-11-15T20:04:03.422Z,23.85
2022-11-15T20:06:36.691Z,23.98
2022-11-15T20:09:04.349Z,24.25
2022-11-15T20:11:31.086Z,22.27
2022-11-15T20:13:59.313Z,25.08
2022-11-15T20:16:26.233Z,20.83
2022-11-15T20:18:53.689Z,23.98
2022-11-15T20:21:21.777Z,22.15
2022-11-15T20:23:50.761Z,23.65
2022-11-15T20:26:21.035Z,23.40
2022-11-15T20:28:48.618Z,24.77
2022-11-15T20:31:16.242Z,23.85
2022-11-15T20:33:43.037Z,24.48
2022-11-15T20:36:12.671Z,23.85
2022-11-15T20:38:39.524Z,23.88
2022-11-15T20:41:06.331Z,25.13
2022-11-15T20:43:33.519Z,24.00
2022-11-15T20:46:00.274Z,23.63
2022-11-15T20:48:27.236Z,21.88
2022-11-15T20:51:05.079Z,23.98
2022-11-15T20:53:31.891Z,24.13
2022-11-15T20:56:07.719Z,23.73
2022-11-15T20:58:36.236Z,23.63
2022-11-15T21:01:05.370Z,23.48
2022-11-15T21:03:32.933Z,22.85
2022-11-15T21:05:59.861Z,23.77
2022-11-15T21:08:26.688Z,24.77
2022-11-15T21:11:12.848Z,24.35
2022-11-15T21:13:39.794Z,24.52
2022-11-15T21:16:06.939Z,24.20
2022-11-15T21:18:33.984Z,23.60
2022-11-15T21:21:07.381Z,23.70
2022-11-15T21:23:34.126Z,22.83
2022-11-15T21:26:00.838Z,24.30
2022-11-15T21:28:27.560Z,21.15
2022-11-15T21:30:57.311Z,21.20
2022-11-15T21:33:27.295Z,22.25
2022-11-15T21:35:55.758Z,21.80
2022-11-15T21:38:23.683Z,21.50
2022-11-15T21:40:51.566Z,22.02
2022-11-15T21:43:19.062Z,21.45
2022-11-15T21:46:00.409Z,19.17
2022-11-15T21:48:28.298Z,18.70
2022-11-15T21:50:57.140Z,19.38
2022-11-15T21:53:25.143Z,19.30
2022-11-15T21:55:51.935Z,18.75
2022-11-15T21:58:19.863Z,18.98
2022-11-15T22:01:05.326Z,18.88
2022-11-15T22:03:32.244Z,18.27
2022-11-15T22:05:59.036Z,20.40
2022-11-15T22:08:26.578Z,18.52
2022-11-15T22:10:54.016Z,18.48
2022-11-15T22:13:21.041Z,17.67
2022-11-15T22:15:48.103Z,18.40
2022-11-15T22:18:15.123Z,17.13
2022-11-15T22:20:44.959Z,17.73
2022-11-15T22:23:12.139Z,18.00
2022-11-15T22:25:38.908Z,17.55
2022-11-15T22:28:06.000Z,18.10
2022-11-15T22:30:32.803Z,18.10
2022-11-15T22:32:59.521Z,16.77
2022-11-15T22:35:26.183Z,17.08
2022-11-15T22:37:53.018Z,17.02
2022-11-15T22:40:19.775Z,17.75
2022-11-15T22:42:46.509Z,16.50
2022-11-15T22:45:13.214Z,17.25
2022-11-15T22:47:39.979Z,17.52
2022-11-15T22:50:07.249Z,15.60
2022-11-15T22:52:34.156Z,16.08
2022-11-15T22:55:00.908Z,16.13
2022-11-15T22:57:27.778Z,16.80
2022-11-15T22:59:54.641Z,17.15
2022-11-15T23:02:21.544Z,15.40
2022-11-15T23:04:48.271Z,14.55
2022-11-15T23:07:15.482Z,14.30
2022-11-15T23:09:44.389Z,13.85
2022-11-15T23:12:33.310Z,12.75
2022-11-15T23:14:59.999Z,13.90
2022-11-15T23:17:26.687Z,12.90
2022-11-15T23:19:53.381Z,13.90
2022-11-15T23:22:38.699Z,13.13
2022-11-15T23:25:05.685Z,13.15
2022-11-15T23:27:32.645Z,13.18
2022-11-15T23:30:18.086Z,13.43
2022-11-15T23:33:04.439Z,11.70
2022-11-15T23:35:31.385Z,12.93
2022-11-15T23:37:58.251Z,12.52
2022-11-15T23:40:25.261Z,12.00
2022-11-15T23:42:52.009Z,14.07
2022-11-15T23:45:18.724Z,11.80
2022-11-15T23:47:45.469Z,12.45
2022-11-15T23:50:12.227Z,14.77
2022-11-15T23:52:39.016Z,12.50
2022-11-15T23:55:06.295Z,11.93
2022-11-15T23:57:32.998Z,13.35
